Time;durP1;ratioP1;P1;durP2;ratioP2;P2;SDS_P1;SDS_P2;PMS_P1;PMS_P2;Temp;Humidity;BMP_temperature;BMP_pressure;BME280_temperature;BME280_humidity;BME280_pressure;Samples;Min_cycle;Max_cycle;Signal;HPM_P1;HPM_P2
2022/09/23 00:02:18;;;;;;;20.23;13.98;;;8.30;99.90;;;;;;6185920;23;20467;-82
2022/09/23 00:04:45;;;;;;;17.45;13.00;;;8.30;99.90;;;;;;6187068;23;20016;-82
2022/09/23 00:07:11;;;;;;;18.95;13.48;;;8.30;99.90;;;;;;6186392;23;20051;-82
2022/09/23 00:09:37;;;;;;;16.85;12.77;;;8.30;99.90;;;;;;6184257;23;20025;-82
2022/09/23 00:12:05;;;;;;;19.25;13.57;;;9.00;99.90;;;;;;6186137;23;20325;-81
2022/09/23 00:14:31;;;;;;;18.38;13.35;;;8.20;99.90;;;;;;6186497;23;20140;-82
2022/09/23 00:16:57;;;;;;;18.98;13.40;;;8.20;99.90;;;;;;6184333;23;20052;-82
2022/09/23 00:19:22;;;;;;;19.38;12.93;;;9.10;99.90;;;;;;6184329;23;20314;-82
2022/09/23 00:21:48;;;;;;;20.98;13.32;;;8.20;99.90;;;;;;6185854;23;20053;-82
2022/09/23 00:24:14;;;;;;;19.27;13.70;;;8.20;99.90;;;;;;6183525;23;20013;-82
2022/09/23 00:26:40;;;;;;;18.88;13.05;;;8.20;99.90;;;;;;6184716;23;20048;-82
2022/09/23 00:29:05;;;;;;;19.60;13.43;;;8.10;99.90;;;;;;6183581;23;20453;-82
2022/09/23 00:31:32;;;;;;;17.00;12.77;;;8.10;99.90;;;;;;6184740;23;20469;-82
2022/09/23 00:33:59;;;;;;;19.52;12.55;;;8.10;99.90;;;;;;6184461;23;20468;-82
2022/09/23 00:36:27;;;;;;;18.70;12.52;;;8.10;99.90;;;;;;6183348;23;20428;-82
2022/09/23 00:38:53;;;;;;;18.58;12.98;;;8.10;99.90;;;;;;6186600;23;20017;-82
2022/09/23 00:41:20;;;;;;;17.65;13.15;;;8.10;99.90;;;;;;6183724;23;20028;-82
2022/09/23 00:43:50;;;;;;;18.63;12.55;;;8.10;99.90;;;;;;6185772;23;20013;-82
2022/09/23 00:46:18;;;;;;;17.67;12.38;;;8.20;99.90;;;;;;6186451;23;20013;-82
2022/09/23 00:48:45;;;;;;;18.07;12.80;;;8.20;99.90;;;;;;6184380;23;20021;-82
2022/09/23 00:51:16;;;;;;;17.13;12.43;;;8.60;99.90;;;;;;6184132;22;20342;-82
2022/09/23 00:53:43;;;;;;;19.60;12.68;;;8.20;99.90;;;;;;6186226;23;20017;-82
2022/09/23 00:56:11;;;;;;;17.75;12.32;;;8.20;99.90;;;;;;6185534;23;20017;-83
2022/09/23 00:58:39;;;;;;;16.10;11.97;;;8.10;99.90;;;;;;6183942;23;20027;-82
2022/09/23 01:01:05;;;;;;;17.35;12.20;;;8.90;99.90;;;;;;6184661;23;20028;-82
2022/09/23 01:03:31;;;;;;;18.63;12.90;;;7.80;99.90;;;;;;6184363;23;20021;-82
2022/09/23 01:05:57;;;;;;;17.87;13.20;;;8.10;99.90;;;;;;6185689;23;20067;-82
2022/09/23 01:08:23;;;;;;;18.35;12.43;;;8.10;99.90;;;;;;6185835;23;20088;-82
2022/09/23 01:11:22;;;;;;;15.50;11.90;;;8.10;99.90;;;;;;6186247;23;20075;-82
2022/09/23 01:14:07;;;;;;;17.77;12.50;;;8.10;99.90;;;;;;6184578;23;20017;-82
2022/09/23 01:16:49;;;;;;;17.75;12.40;;;8.10;99.90;;;;;;6186078;23;20113;-82
2022/09/23 01:19:41;;;;;;;18.02;12.20;;;8.10;99.90;;;;;;6183293;23;20020;-82
2022/09/23 01:22:18;;;;;;;17.17;12.18;;;8.00;99.90;;;;;;6185805;23;20079;-82
2022/09/23 01:25:17;;;;;;;18.48;12.40;;;8.00;99.90;;;;;;6185590;23;20013;-82
2022/09/23 01:28:04;;;;;;;17.42;12.43;;;8.00;99.90;;;;;;6184172;23;20021;-82
2022/09/23 01:30:42;;;;;;;16.42;12.32;;;8.00;99.90;;;;;;6185882;23;20013;-82
2022/09/23 01:33:23;;;;;;;17.67;12.48;;;8.00;99.90;;;;;;6183278;23;20402;-82
2022/09/23 01:36:07;;;;;;;16.45;11.85;;;8.00;99.90;;;;;;6183854;23;20352;-82
2022/09/23 01:38:59;;;;;;;18.73;12.02;;;7.90;99.90;;;;;;6183870;23;20341;-82
2022/09/23 01:41:51;;;;;;;20.02;12.35;;;7.90;99.90;;;;;;6172469;23;20028;-83
2022/09/23 01:44:16;;;;;;;17.92;13.13;;;7.90;99.90;;;;;;6185055;23;20460;-82
2022/09/23 01:46:55;;;;;;;17.63;12.70;;;7.90;99.90;;;;;;6184807;23;20100;-82
2022/09/23 01:49:48;;;;;;;16.13;12.07;;;7.90;99.90;;;;;;6183855;23;20092;-82
2022/09/23 01:52:34;;;;;;;17.35;12.75;;;7.80;99.90;;;;;;6184763;23;20028;-82
2022/09/23 01:55:17;;;;;;;17.27;12.52;;;7.80;99.90;;;;;;6183242;23;20028;-82
2022/09/23 01:57:48;;;;;;;18.13;12.10;;;7.80;99.90;;;;;;6183891;23;20013;-82
2022/09/23 02:00:16;;;;;;;15.93;11.95;;;7.80;99.90;;;;;;6182657;23;20017;-82
2022/09/23 02:02:52;;;;;;;36.47;23.10;;;7.80;99.90;;;;;;6183174;23;20040;-82
2022/09/23 02:05:29;;;;;;;34.13;21.15;;;7.80;99.90;;;;;;6184541;23;20013;-82
2022/09/23 02:08:06;;;;;;;26.80;17.23;;;7.80;99.90;;;;;;6184703;23;20346;-82
2022/09/23 02:10:45;;;;;;;25.30;15.43;;;7.80;99.90;;;;;;6183746;23;20067;-83
2022/09/23 02:13:23;;;;;;;21.25;13.98;;;7.80;99.90;;;;;;6184866;23;20088;-82
2022/09/23 02:15:57;;;;;;;21.30;14.15;;;7.80;99.90;;;;;;6183013;23;20017;-82
2022/09/23 02:18:31;;;;;;;30.98;20.98;;;8.20;99.90;;;;;;6185399;23;20013;-82
2022/09/23 02:21:03;;;;;;;21.95;15.00;;;8.10;99.90;;;;;;6183573;23;20092;-82
2022/09/23 02:24:18;;;;;;;19.73;13.60;;;7.80;99.90;;;;;;6182840;23;20021;-82
2022/09/23 02:27:02;;;;;;;18.42;13.43;;;7.70;99.90;;;;;;6174680;23;20056;-82
2022/09/23 02:29:36;;;;;;;;;;;7.70;99.90;;;;;;6183395;23;20517;-82
2022/09/23 02:32:07;;;;;;;18.85;12.43;;;7.70;99.90;;;;;;6185649;23;19920;-83
2022/09/23 02:35:05;;;;;;;16.45;12.05;;;7.60;99.90;;;;;;6182978;23;20021;-82
2022/09/23 02:37:38;;;;;;;17.50;12.20;;;7.60;99.90;;;;;;6182885;23;20099;-82
2022/09/23 02:40:24;;;;;;;18.93;12.87;;;7.60;99.90;;;;;;6183588;23;20017;-82
2022/09/23 02:43:02;;;;;;;16.70;12.05;;;7.60;99.90;;;;;;6184828;23;20274;-82
2022/09/23 02:45:28;;;;;;;19.02;12.05;;;7.50;99.90;;;;;;6185188;23;20020;-82
2022/09/23 02:48:04;;;;;;;16.92;11.75;;;7.50;99.90;;;;;;6183186;23;20091;-82
2022/09/23 02:50:31;;;;;;;16.65;12.00;;;7.50;99.90;;;;;;6182749;23;20067;-82
2022/09/23 02:52:58;;;;;;;16.63;11.88;;;7.40;99.90;;;;;;6183464;23;20092;-82
2022/09/23 02:55:25;;;;;;;18.65;12.85;;;7.40;99.90;;;;;;6182883;23;20021;-82
2022/09/23 02:57:52;;;;;;;18.95;12.80;;;7.30;99.90;;;;;;6184652;23;20028;-82
2022/09/23 03:00:18;;;;;;;17.08;12.43;;;7.30;99.90;;;;;;6183119;23;20384;-82
2022/09/23 03:03:03;;;;;;;19.65;12.70;;;7.30;99.90;;;;;;6183295;23;20024;-82
2022/09/23 03:05:32;;;;;;;18.73;11.75;;;7.30;99.90;;;;;;6182400;23;20009;-82
2022/09/23 03:08:13;;;;;;;17.60;12.50;;;7.30;99.90;;;;;;6183403;23;20092;-82
2022/09/23 03:10:51;;;;;;;23.20;13.93;;;7.40;99.90;;;;;;6182522;23;20088;-81
2022/09/23 03:13:46;;;;;;;19.88;14.05;;;7.20;99.90;;;;;;6182892;23;20048;-82
2022/09/23 03:16:29;;;;;;;19.08;13.15;;;7.20;99.90;;;;;;6182558;23;20076;-82
2022/09/23 03:19:17;;;;;;;17.80;12.75;;;7.10;99.90;;;;;;6182508;23;20017;-82
2022/09/23 03:22:02;;;;;;;16.15;12.32;;;7.10;99.90;;;;;;6185012;23;20009;-82
2022/09/23 03:24:33;;;;;;;17.35;12.00;;;7.00;99.90;;;;;;6184891;23;20017;-82
2022/09/23 03:27:12;;;;;;;18.40;13.52;;;7.00;99.90;;;;;;6182844;23;20402;-82
2022/09/23 03:29:44;;;;;;;18.92;13.43;;;7.70;99.90;;;;;;6184996;23;20021;-82
2022/09/23 03:32:15;;;;;;;19.63;13.10;;;6.90;99.90;;;;;;6183830;23;20009;-82
2022/09/23 03:34:43;;;;;;;18.60;12.68;;;6.90;99.90;;;;;;6183127;23;20029;-82
2022/09/23 03:37:29;;;;;;;19.35;13.23;;;6.90;99.90;;;;;;6182707;23;20028;-82
2022/09/23 03:40:00;;;;;;;17.67;13.00;;;6.90;99.90;;;;;;6182540;23;20025;-82
2022/09/23 03:42:29;;;;;;;18.95;13.30;;;6.90;99.90;;;;;;6183077;23;20281;-82
2022/09/23 03:44:56;;;;;;;19.13;13.48;;;6.90;99.90;;;;;;6184630;23;20128;-82
2022/09/23 03:47:25;;;;;;;19.02;13.93;;;6.90;99.90;;;;;;6181503;23;20072;-82
2022/09/23 03:49:51;;;;;;;19.88;14.13;;;6.90;99.90;;;;;;6185062;23;20108;-82
2022/09/23 03:52:19;;;;;;;20.55;14.57;;;6.80;99.90;;;;;;6182153;23;20024;-83
2022/09/23 03:54:44;;;;;;;20.70;14.70;;;6.80;99.90;;;;;;6182409;23;20028;-82
2022/09/23 03:57:11;;;;;;;18.58;13.27;;;6.80;99.90;;;;;;6184697;23;20021;-82
2022/09/23 03:59:37;;;;;;;19.55;13.82;;;6.80;99.90;;;;;;6182899;23;20017;-82
2022/09/23 04:02:05;;;;;;;19.80;14.10;;;6.80;99.90;;;;;;6181511;23;20017;-82
2022/09/23 04:04:33;;;;;;;21.27;13.93;;;6.90;99.90;;;;;;6181729;23;20021;-82
2022/09/23 04:06:59;;;;;;;20.20;13.82;;;6.80;99.90;;;;;;6183301;23;20009;-82
2022/09/23 04:09:25;;;;;;;19.55;14.23;;;6.90;99.90;;;;;;6182073;23;20021;-82
2022/09/23 04:11:51;;;;;;;19.45;14.18;;;6.90;99.90;;;;;;6182386;23;20499;-82
2022/09/23 04:14:19;;;;;;;19.23;14.45;;;6.90;99.90;;;;;;6181737;23;20028;-82
2022/09/23 04:16:45;;;;;;;18.90;14.43;;;6.90;99.90;;;;;;6184645;23;20072;-82
2022/09/23 04:19:12;;;;;;;18.80;14.00;;;6.90;99.90;;;;;;6182173;23;20345;-82
2022/09/23 04:21:38;;;;;;;20.90;14.48;;;6.90;99.90;;;;;;6184184;23;20025;-82
2022/09/23 04:24:05;;;;;;;20.75;14.55;;;6.80;99.90;;;;;;6183073;23;20021;-82
2022/09/23 04:29:21;;;;;;;19.17;13.75;;;6.80;99.90;;;;;;6185022;22;20017;-82
2022/09/23 04:31:47;;;;;;;21.45;14.23;;;6.80;99.90;;;;;;6184462;23;20075;-82
2022/09/23 04:34:14;;;;;;;20.35;11.02;;;6.70;99.90;;;;;;6186073;23;20092;-82
2022/09/23 04:36:41;;;;;;;17.70;11.73;;;6.80;99.90;;;;;;6184086;23;20017;-82
2022/09/23 04:39:06;;;;;;;20.02;11.52;;;6.80;99.90;;;;;;6186254;23;20009;-82
2022/09/23 04:41:32;;;;;;;18.42;11.35;;;6.80;99.90;;;;;;6184524;23;20052;-82
2022/09/23 04:43:58;;;;;;;17.98;11.50;;;6.80;99.90;;;;;;6183862;23;20055;-82
2022/09/23 04:46:24;;;;;;;16.50;11.27;;;6.80;99.90;;;;;;6186163;23;20092;-82
2022/09/23 04:48:49;;;;;;;20.00;10.57;;;6.80;99.90;;;;;;6184448;23;20024;-82
2022/09/23 04:51:21;;;;;;;17.38;10.98;;;6.90;99.90;;;;;;6183732;23;20005;-82
2022/09/23 04:53:48;;;;;;;17.63;11.43;;;6.80;99.90;;;;;;6184156;23;20068;-82
2022/09/23 04:56:19;;;;;;;17.38;11.45;;;6.90;99.90;;;;;;6185236;23;20376;-82
2022/09/23 04:58:45;;;;;;;18.48;11.57;;;6.90;99.90;;;;;;6184452;23;20021;-82
2022/09/23 05:01:23;;;;;;;17.48;11.73;;;6.90;99.90;;;;;;6185709;23;20019;-82
2022/09/23 05:03:50;;;;;;;19.38;11.25;;;6.90;99.90;;;;;;6185287;23;20009;-82
2022/09/23 05:06:16;;;;;;;20.30;11.23;;;6.90;99.90;;;;;;6186013;23;20016;-82
2022/09/23 05:08:47;;;;;;;18.40;11.55;;;6.90;99.90;;;;;;6184029;23;20144;-82
2022/09/23 05:11:13;;;;;;;20.17;11.03;;;6.90;99.90;;;;;;6183438;23;20488;-82
2022/09/23 05:13:38;;;;;;;18.50;11.83;;;7.00;99.90;;;;;;6184418;23;20017;-82
2022/09/23 05:16:06;;;;;;;17.20;11.48;;;7.00;99.90;;;;;;6184287;23;20020;-82
2022/09/23 05:18:37;;;;;;;16.83;11.98;;;7.00;99.90;;;;;;6185244;23;20017;-82
2022/09/23 05:21:03;;;;;;;18.05;11.65;;;7.00;99.90;;;;;;6184327;23;20029;-82
2022/09/23 05:23:29;;;;;;;17.88;11.85;;;7.00;99.90;;;;;;6185431;23;20020;-82
2022/09/23 05:26:01;;;;;;;20.38;13.10;;;7.00;99.90;;;;;;6185250;23;20016;-83
2022/09/23 05:28:31;;;;;;;18.15;11.82;;;7.00;99.90;;;;;;6185443;23;20032;-82
2022/09/23 05:31:17;;;;;;;17.52;11.30;;;7.00;99.90;;;;;;6183949;23;20020;-82
2022/09/23 05:33:45;;;;;;;19.25;11.07;;;7.00;99.90;;;;;;6183796;23;20017;-82
2022/09/23 05:36:12;;;;;;;18.38;11.63;;;6.90;99.90;;;;;;6183656;23;20471;-82
2022/09/23 05:38:38;;;;;;;18.20;11.75;;;6.90;99.90;;;;;;6183641;23;20013;-82
2022/09/23 05:41:06;;;;;;;18.40;11.68;;;6.90;99.90;;;;;;6184207;23;20043;-82
2022/09/23 05:43:34;;;;;;;17.27;11.65;;;6.80;99.90;;;;;;6183506;23;20021;-82
2022/09/23 05:46:05;;;;;;;18.10;12.15;;;6.90;99.90;;;;;;6185376;23;20009;-82
2022/09/23 05:48:32;;;;;;;17.13;11.27;;;6.80;99.90;;;;;;6183724;23;20384;-82
2022/09/23 05:50:58;;;;;;;19.25;11.45;;;7.50;99.90;;;;;;6183761;23;20437;-82
2022/09/23 05:53:25;;;;;;;16.85;11.50;;;6.80;99.90;;;;;;6184842;23;20021;-82
2022/09/23 05:55:53;;;;;;;19.33;11.32;;;6.80;99.90;;;;;;6185533;23;20020;-82
2022/09/23 05:58:20;;;;;;;19.38;12.45;;;6.90;99.90;;;;;;6183317;23;20381;-82
2022/09/23 06:00:48;;;;;;;19.23;11.80;;;6.90;99.90;;;;;;6183201;23;20463;-82
2022/09/23 06:03:15;;;;;;;17.43;11.53;;;6.90;99.90;;;;;;6183352;23;20513;-82
2022/09/23 06:05:41;;;;;;;18.70;12.63;;;6.90;99.90;;;;;;6185218;23;20322;-82
2022/09/23 06:08:07;;;;;;;20.73;11.73;;;6.90;99.90;;;;;;6184748;23;20024;-82
2022/09/23 06:10:37;;;;;;;18.95;11.50;;;7.00;99.90;;;;;;6183752;23;20024;-82
2022/09/23 06:13:03;;;;;;;16.85;11.45;;;7.00;99.90;;;;;;6183687;23;20028;-83
2022/09/23 06:15:28;;;;;;;18.60;11.48;;;7.10;99.90;;;;;;6182669;23;20457;-82
2022/09/23 06:17:54;;;;;;;21.58;12.60;;;7.10;99.90;;;;;;6183445;23;20508;-81
2022/09/23 06:20:20;;;;;;;17.60;11.32;;;7.20;99.90;;;;;;6185189;23;20044;-82
2022/09/23 06:22:45;;;;;;;16.20;11.60;;;7.20;99.90;;;;;;6182938;23;20059;-82
2022/09/23 06:25:11;;;;;;;17.40;11.52;;;7.30;99.90;;;;;;6183111;23;20021;-82
2022/09/23 06:27:37;;;;;;;20.48;12.20;;;7.40;99.90;;;;;;6182856;23;20456;-82
2022/09/23 06:30:05;;;;;;;17.95;11.38;;;7.40;99.90;;;;;;6183543;23;20480;-82
2022/09/23 06:32:31;;;;;;;19.33;11.68;;;7.60;99.90;;;;;;6185181;23;20009;-82
2022/09/23 06:38:51;;;;;;;19.17;11.60;;;7.10;99.90;;;;;;6185427;23;20019;-81
2022/09/23 06:41:16;;;;;;;20.10;11.45;;;8.10;99.90;;;;;;6183177;23;20017;-82
2022/09/23 06:43:42;;;;;;;18.52;11.80;;;8.10;99.90;;;;;;6184102;23;20013;-82
2022/09/23 06:46:11;;;;;;;20.40;11.38;;;8.30;99.90;;;;;;6182910;23;20021;-82
2022/09/23 06:48:37;;;;;;;19.20;11.95;;;8.40;99.90;;;;;;6183496;23;20017;-81
2022/09/23 06:51:06;;;;;;;19.73;11.02;;;8.50;99.90;;;;;;6184208;23;20517;-81
2022/09/23 06:53:32;;;;;;;17.27;11.80;;;8.70;99.90;;;;;;6182717;23;20021;-81
2022/09/23 06:56:04;;;;;;;19.73;11.48;;;9.00;99.90;;;;;;6182684;23;20017;-81
2022/09/23 06:58:31;;;;;;;17.08;10.70;;;8.90;99.90;;;;;;6184851;23;20441;-81
2022/09/23 07:01:05;;;;;;;17.45;11.57;;;9.00;99.90;;;;;;6183086;23;20445;-82
2022/09/23 07:03:32;;;;;;;17.70;10.82;;;9.10;99.90;;;;;;6184867;23;20012;-81
2022/09/23 07:05:58;;;;;;;18.35;11.02;;;10.30;99.90;;;;;;6185142;23;20014;-81
2022/09/23 07:08:26;;;;;;;17.85;11.45;;;10.40;99.90;;;;;;6182778;23;20020;-81
2022/09/23 07:10:57;;;;;;;19.33;11.13;;;10.40;99.90;;;;;;6182499;23;20384;-82
2022/09/23 07:13:23;;;;;;;16.00;10.40;;;9.40;99.90;;;;;;6183015;23;20100;-82
2022/09/23 07:15:54;;;;;;;19.13;10.85;;;9.50;99.90;;;;;;6184836;23;20017;-82
2022/09/23 07:18:24;;;;;;;16.77;10.35;;;9.60;99.90;;;;;;6184008;23;20020;-82
2022/09/23 07:20:51;;;;;;;17.58;10.80;;;9.70;99.90;;;;;;6183075;23;20025;-82
2022/09/23 07:23:19;;;;;;;19.27;10.73;;;11.00;99.90;;;;;;6184638;23;20013;-82
2022/09/23 07:25:46;;;;;;;23.55;11.07;;;9.80;99.90;;;;;;6182465;23;20096;-81
2022/09/23 07:28:11;;;;;;;14.88;9.75;;;9.90;99.90;;;;;;6182417;23;20013;-81
2022/09/23 07:30:39;;;;;;;17.70;10.07;;;10.60;99.90;;;;;;6182479;23;20071;-82
2022/09/23 07:33:05;;;;;;;21.83;11.13;;;10.00;99.90;;;;;;6183512;23;20467;-82
2022/09/23 07:35:31;;;;;;;20.52;12.48;;;10.10;99.90;;;;;;6182443;23;20048;-82
2022/09/23 07:37:56;;;;;;;17.60;11.40;;;10.10;99.90;;;;;;6183745;23;20044;-82
2022/09/23 07:40:22;;;;;;;16.23;10.05;;;10.20;99.90;;;;;;6182639;23;20017;-83
2022/09/23 07:42:48;;;;;;;19.77;12.32;;;10.30;99.90;;;;;;6182537;23;20014;-83
2022/09/23 07:45:13;;;;;;;16.42;10.18;;;10.40;99.90;;;;;;6182206;23;20405;-83
2022/09/23 07:47:39;;;;;;;15.85;9.63;;;10.50;99.90;;;;;;6183369;23;20099;-83
2022/09/23 07:50:07;;;;;;;16.52;9.88;;;10.60;99.90;;;;;;6182684;23;20027;-83
2022/09/23 07:52:36;;;;;;;17.92;9.50;;;10.70;99.90;;;;;;6182555;23;20015;-83
2022/09/23 07:55:03;;;;;;;21.83;9.77;;;10.80;99.90;;;;;;6185123;23;20013;-83
2022/09/23 07:57:28;;;;;;;15.85;9.18;;;10.90;99.90;;;;;;6182341;23;20025;-80
2022/09/23 07:59:57;;;;;;;15.25;9.68;;;11.40;99.90;;;;;;6182389;23;20341;-80
2022/09/23 08:02:23;;;;;;;17.13;9.57;;;11.90;99.90;;;;;;6182092;23;20013;-80
2022/09/23 08:04:48;;;;;;;15.13;8.82;;;11.20;99.90;;;;;;6185554;23;20063;-81
2022/09/23 08:07:15;;;;;;;16.48;9.93;;;11.30;99.90;;;;;;6185178;23;20019;-80
2022/09/23 08:09:42;;;;;;;15.27;9.32;;;11.40;99.90;;;;;;6183249;23;20091;-80
2022/09/23 08:12:17;;;;;;;16.95;9.30;;;11.40;99.90;;;;;;6184675;23;20088;-81
2022/09/23 08:14:43;;;;;;;15.15;8.48;;;11.50;99.90;;;;;;6183328;23;20024;-81
2022/09/23 08:17:11;;;;;;;14.70;9.10;;;11.70;99.90;;;;;;6185273;23;20021;-81
2022/09/23 08:19:36;;;;;;;13.90;9.10;;;11.80;99.90;;;;;;6182546;23;20452;-83
2022/09/23 08:22:02;;;;;;;16.63;9.10;;;11.90;99.90;;;;;;6184642;23;20013;-83
2022/09/23 08:24:29;;;;;;;14.52;8.70;;;12.00;99.90;;;;;;6182854;23;20016;-84
2022/09/23 08:26:54;;;;;;;17.65;9.15;;;13.10;99.90;;;;;;6183510;23;20021;-82
2022/09/23 08:29:22;;;;;;;15.98;9.65;;;13.20;99.90;;;;;;6184659;23;20032;-82
2022/09/23 08:31:48;;;;;;;14.18;8.32;;;13.40;99.90;;;;;;6183517;23;20013;-82
2022/09/23 08:34:15;;;;;;;15.95;9.25;;;12.30;99.90;;;;;;6183048;23;20024;-82
2022/09/23 08:36:41;;;;;;;14.70;9.25;;;12.30;99.90;;;;;;6183876;23;20020;-82
2022/09/23 08:39:07;;;;;;;15.25;9.13;;;12.40;99.90;;;;;;6182986;23;20453;-82
2022/09/23 08:41:52;;;;;;;18.13;9.88;;;12.50;99.90;;;;;;6183728;23;20132;-82
2022/09/23 08:44:50;;;;;;;15.27;8.27;;;12.60;99.90;;;;;;6185599;23;20381;-82
2022/09/23 08:47:31;;;;;;;15.38;8.68;;;12.70;99.90;;;;;;6185485;23;20048;-83
2022/09/23 08:49:59;;;;;;;14.25;8.60;;;12.80;99.90;;;;;;6183360;23;20456;-83
2022/09/23 08:52:38;;;;;;;13.70;8.30;;;12.90;99.90;;;;;;6183550;23;20021;-83
2022/09/23 08:55:04;;;;;;;18.00;8.68;;;13.00;99.90;;;;;;6183869;23;20013;-83
2022/09/23 08:57:52;;;;;;;15.00;9.27;;;13.10;99.90;;;;;;6183431;23;20055;-83
2022/09/23 09:00:24;;;;;;;14.30;8.65;;;13.10;99.90;;;;;;6182599;23;20476;-83
2022/09/23 09:02:50;;;;;;;14.48;8.35;;;13.20;99.90;;;;;;6185718;23;20100;-82
2022/09/23 09:05:23;;;;;;;14.57;8.88;;;13.70;99.90;;;;;;6184235;23;20040;-82
2022/09/23 09:07:49;;;;;;;13.10;8.38;;;13.30;99.90;;;;;;6184183;23;20017;-83
2022/09/23 09:10:34;;;;;;;15.75;8.80;;;13.30;99.90;;;;;;6185015;23;20093;-83
2022/09/23 09:13:15;;;;;;;14.40;8.93;;;13.40;99.90;;;;;;6186488;23;20024;-82
2022/09/23 09:15:51;;;;;;;13.73;8.60;;;13.40;99.90;;;;;;6183563;23;20454;-81
2022/09/23 09:18:20;;;;;;;15.60;8.95;;;13.50;99.90;;;;;;6183225;23;20022;-82
2022/09/23 09:21:11;;;;;;;14.75;8.75;;;13.60;99.90;;;;;;6185825;23;20449;-81
2022/09/23 09:23:55;;;;;;;15.10;8.25;;;13.70;99.90;;;;;;6183757;23;20017;-82
2022/09/23 09:26:31;;;;;;;;;;;13.90;99.90;;;;;;6184543;23;20017;-83
2022/09/23 09:29:14;;;;;;;14.70;8.60;;;14.00;99.90;;;;;;6183559;23;19916;-83
2022/09/23 09:31:46;;;;;;;14.63;8.63;;;14.20;99.90;;;;;;6183607;23;20013;-84
2022/09/23 09:34:35;;;;;;;15.48;8.98;;;14.30;99.90;;;;;;6183409;23;20035;-83
2022/09/23 09:37:07;;;;;;;17.92;9.07;;;14.40;99.90;;;;;;6183946;23;20025;-83
2022/09/23 09:39:34;;;;;;;14.90;8.95;;;14.90;99.90;;;;;;6185024;23;20048;-80
2022/09/23 09:42:01;;;;;;;14.63;8.93;;;14.50;99.90;;;;;;6183936;23;20031;-81
2022/09/23 09:44:34;;;;;;;15.18;8.82;;;14.60;99.90;;;;;;6183946;23;20092;-81
2022/09/23 09:47:34;;;;;;;15.23;8.53;;;14.60;99.90;;;;;;6189200;22;20027;-81
2022/09/23 09:50:06;;;;;;;15.05;8.65;;;14.60;99.90;;;;;;6185683;23;20251;-81
2022/09/23 09:52:32;;;;;;;14.98;8.40;;;14.60;99.90;;;;;;6187770;23;20017;-82
2022/09/23 09:55:26;;;;;;;16.27;9.57;;;14.70;99.90;;;;;;6213414;23;20021;-82
2022/09/23 09:58:00;;;;;;;14.48;8.57;;;14.70;99.90;;;;;;6187305;23;20021;-81
2022/09/23 10:00:26;;;;;;;13.75;8.15;;;14.90;99.90;;;;;;6185044;23;20091;-81
2022/09/23 10:03:02;;;;;;;13.52;8.10;;;15.60;99.90;;;;;;6187952;23;20103;-81
2022/09/23 10:05:33;;;;;;;15.27;8.30;;;15.10;99.90;;;;;;6188589;23;20012;-81
2022/09/23 10:08:18;;;;;;;14.48;8.35;;;16.20;99.90;;;;;;6187176;23;20020;-82
2022/09/23 10:11:03;;;;;;;13.35;7.90;;;15.40;99.90;;;;;;6187259;23;20020;-82
2022/09/23 10:13:29;;;;;;;15.88;8.18;;;15.20;99.90;;;;;;6214006;23;20444;-82
2022/09/23 10:15:57;;;;;;;15.65;7.88;;;15.40;99.90;;;;;;6188611;23;20016;-82
2022/09/23 10:18:30;;;;;;;13.63;7.93;;;15.60;99.90;;;;;;6214617;23;20013;-82
2022/09/23 10:21:08;;;;;;;14.13;8.23;;;15.80;99.90;;;;;;6187575;23;20017;-82
2022/09/23 10:23:40;;;;;;;12.52;7.57;;;15.80;99.90;;;;;;6187933;23;20012;-82
2022/09/23 10:26:07;;;;;;;13.57;7.80;;;15.90;99.90;;;;;;6187995;23;20027;-82
2022/09/23 10:28:44;;;;;;;13.55;7.50;;;15.90;99.90;;;;;;6187593;23;20016;-82
2022/09/23 10:31:23;;;;;;;13.63;8.30;;;15.90;99.90;;;;;;6213873;23;20448;-83
2022/09/23 10:33:53;;;;;;;15.00;8.63;;;15.90;99.90;;;;;;6213956;23;20063;-82
2022/09/23 10:36:19;;;;;;;13.80;8.25;;;15.90;99.90;;;;;;6188034;23;20031;-82
2022/09/23 10:38:50;;;;;;;14.27;8.25;;;16.00;99.90;;;;;;6214386;23;20054;-82
2022/09/23 10:48:22;;;;;;;15.93;8.27;;;15.60;99.90;;;;;;6187778;23;20024;-81
2022/09/23 10:50:51;;;;;;;13.80;8.52;;;15.60;99.90;;;;;;6183931;23;20436;-81
2022/09/23 10:53:58;;;;;;;14.35;8.68;;;15.50;99.90;;;;;;6182366;23;20020;-81
2022/09/23 10:56:35;;;;;;;13.75;8.02;;;15.50;99.90;;;;;;6183877;23;20024;-81
2022/09/23 10:59:05;;;;;;;14.68;8.32;;;15.40;99.90;;;;;;6182923;23;20017;-81
2022/09/23 11:01:40;;;;;;;14.23;8.30;;;15.40;99.90;;;;;;6183152;23;20353;-80
2022/09/23 11:04:30;;;;;;;12.52;7.95;;;15.50;99.90;;;;;;6183581;23;20381;-80
2022/09/23 11:07:17;;;;;;;14.80;8.18;;;15.50;99.90;;;;;;6168311;23;20024;-83
2022/09/23 11:10:07;;;;;;;13.48;8.13;;;15.60;99.90;;;;;;6183694;23;20426;-81
2022/09/23 11:13:05;;;;;;;14.20;8.35;;;15.60;99.90;;;;;;6186882;23;20132;-81
2022/09/23 11:16:04;;;;;;;13.18;7.97;;;15.70;99.90;;;;;;6184451;23;20044;-81
2022/09/23 11:18:44;;;;;;;13.93;8.27;;;15.80;99.90;;;;;;6183971;23;20353;-81
2022/09/23 11:21:32;;;;;;;16.30;8.50;;;15.90;99.90;;;;;;6182068;23;20020;-81
2022/09/23 11:24:04;;;;;;;14.48;7.82;;;15.90;99.90;;;;;;6183973;23;20013;-81
2022/09/23 11:26:33;;;;;;;14.00;7.88;;;16.00;99.90;;;;;;6181819;23;20013;-80
2022/09/23 11:29:24;;;;;;;16.27;9.10;;;15.90;99.90;;;;;;6181738;23;20024;-81
2022/09/23 11:32:30;;;;;;;12.60;7.90;;;16.00;99.90;;;;;;6186206;22;20025;-80
2022/09/23 11:35:48;;;;;;;17.88;10.70;;;16.10;99.90;;;;;;6182141;23;20462;-81
2022/09/23 11:38:37;;;;;;;14.80;8.45;;;16.00;99.90;;;;;;6068193;23;20100;-82
2022/09/23 11:47:59;;;;;;;15.32;8.50;;;17.30;99.90;;;;;;6215676;23;20015;-83
2022/09/23 11:50:38;;;;;;;14.43;8.38;;;16.20;99.90;;;;;;6215947;23;20117;-83
2022/09/23 11:53:38;;;;;;;14.73;8.38;;;17.20;99.90;;;;;;6189362;23;20148;-82
2022/09/23 11:59:37;;;;;;;16.02;7.70;;;16.30;99.90;;;;;;6214706;22;20042;-81
2022/09/23 12:02:29;;;;;;;13.88;8.15;;;16.30;99.90;;;;;;6189407;23;20459;-81
2022/09/23 12:05:05;;;;;;;13.43;7.60;;;16.60;99.90;;;;;;6189570;23;20048;-81
2022/09/23 12:08:02;;;;;;;15.23;8.18;;;17.60;99.90;;;;;;6187439;23;20059;-81
2022/09/23 12:11:06;;;;;;;12.32;7.53;;;16.40;99.90;;;;;;6215442;23;20013;-81
2022/09/23 12:13:51;;;;;;;15.95;8.15;;;16.40;99.90;;;;;;6213364;23;20012;-81
2022/09/23 12:16:52;;;;;;;15.90;8.23;;;16.40;99.90;;;;;;6214626;23;20017;-82
2022/09/23 12:19:39;;;;;;;15.63;8.73;;;17.20;99.90;;;;;;6187640;23;20009;-80
2022/09/23 12:22:28;;;;;;;13.30;8.35;;;16.40;99.90;;;;;;6188130;23;20028;-81
2022/09/23 12:25:05;;;;;;;14.77;8.38;;;16.60;99.90;;;;;;6215601;23;20056;-81
2022/09/23 12:27:40;;;;;;;13.88;8.38;;;16.40;99.90;;;;;;6215274;23;20036;-80
2022/09/23 12:30:20;;;;;;;13.75;8.40;;;16.70;99.90;;;;;;6189287;23;20024;-81
2022/09/23 12:32:46;;;;;;;13.88;8.07;;;16.50;99.90;;;;;;6216246;23;20013;-81
2022/09/23 12:35:26;;;;;;;15.50;7.70;;;16.60;99.90;;;;;;6215358;23;20013;-81
2022/09/23 12:37:52;;;;;;;17.95;8.43;;;17.10;99.90;;;;;;6216202;23;20017;-81
2022/09/23 12:40:32;;;;;;;13.80;8.32;;;16.60;99.90;;;;;;6216075;23;20013;-81
2022/09/23 12:43:00;;;;;;;14.20;8.52;;;16.70;99.90;;;;;;6216305;23;20464;-81
2022/09/23 12:45:33;;;;;;;14.48;8.93;;;16.90;99.90;;;;;;6188551;23;20029;-81
2022/09/23 12:48:23;;;;;;;14.13;8.88;;;16.70;99.90;;;;;;6189537;23;20055;-81
2022/09/23 12:51:15;;;;;;;15.20;8.30;;;16.80;99.90;;;;;;6214272;23;20023;-81
2022/09/23 12:53:46;;;;;;;14.48;8.05;;;17.50;99.90;;;;;;6189453;23;20008;-81
2022/09/23 12:56:17;;;;;;;14.43;7.78;;;16.70;99.90;;;;;;6215164;23;20016;-81
2022/09/23 12:58:42;;;;;;;13.48;8.05;;;16.70;99.90;;;;;;6188553;23;20023;-81
2022/09/23 13:01:19;;;;;;;16.63;8.20;;;16.60;99.90;;;;;;6189217;23;20028;-79
2022/09/23 13:06:45;;;;;;;13.32;7.15;;;16.60;99.90;;;;;;6216142;23;20100;-79
2022/09/23 13:09:19;;;;;;;14.02;7.30;;;16.60;99.90;;;;;;6188549;23;20341;-79
2022/09/23 13:11:46;;;;;;;13.75;7.55;;;16.60;99.90;;;;;;6189186;23;20093;-80
2022/09/23 13:14:18;;;;;;;15.95;7.53;;;16.70;99.90;;;;;;6215099;23;20439;-79
2022/09/23 13:16:45;;;;;;;15.15;7.68;;;16.80;99.90;;;;;;6189060;23;20352;-80
2022/09/23 13:19:25;;;;;;;14.65;7.10;;;17.20;99.90;;;;;;6215552;23;20009;-80
2022/09/23 13:21:59;;;;;;;13.48;6.82;;;17.30;99.90;;;;;;6189342;23;20096;-80
2022/09/23 13:24:27;;;;;;;14.15;6.82;;;16.80;99.90;;;;;;6188610;23;20075;-79
2022/09/23 13:27:04;;;;;;;13.93;6.22;;;17.50;99.90;;;;;;6215782;23;20328;-79
2022/09/23 13:29:37;;;;;;;15.25;5.85;;;17.00;99.90;;;;;;6215642;23;20024;-80
2022/09/23 13:32:05;;;;;;;11.32;6.20;;;16.90;99.90;;;;;;6216127;23;20021;-80
2022/09/23 13:34:33;;;;;;;13.20;6.90;;;17.70;99.90;;;;;;6214921;23;20016;-79
2022/09/23 13:37:15;;;;;;;14.52;6.60;;;16.90;99.90;;;;;;6188423;23;20099;-80